Airfield :
LOGIN :

Register | Disclaimer

   EN    FR    IT 

 










Legend :    VFR   Marginal VFR   IFR   Intensive IFR   Very Intensive IFR
Visi :
Ceiling :
>= 8 km
>= 3000ft
5 to 8 km
1000 to 3000 ft
1500m to 5 km
500 to 1000 ft
800 to 1500m
200 to 500 ft
< 800m
< 200 ft
Symbols :   Thunderstorms  Fog  Heavy snow  Heavy precipitations  Wind > 20 kt
SIGMETs :     Misc.  Thunderstorms  Icing  Turbulence  Mountain Waves  Volcanic Ashes







- Airport Elevation : 231 ft
- IATA code : WTN


EGXW - RAF Waddington

CURRENT METAR :
  • 220750Z 08006KT 7000 BR SCT026 M01/M01 Q1026 WHT BECMG 9999 NSW BLU

EXPIRED METARs :
  • 220650Z 08005KT 5000 BR FEW020 M02/M02 Q1026 WHT TEMPO 3000 YLO1
  • 220550Z 07006KT 3500 BR FEW024 M02/M02 Q1025 YLO1

TAF TAF EGXW
Valid from the 22 at 09:00 until the 23 at 03:00 UTC


220745Z 2209/2303 06008KT 9999 FEW010
PROB30 2209/2210 5000 BR
No reported NOTAMs for that airfield.



MET'MAP, your aeronautical weather chart ! - Copyright ORBIFLY December 2007 - Disclaimer

ORBIFLY MET'MAP TEAM :

Programming & Development : Alexandra Zaïnal
Concept & Development : Baudouin d'Aumeries
Co-Development & Prog : Marc-Olivier Méhu
Technical & hardware support : Manuel Goepfert

Contact : metmap@orbifly.com




SOURCES & CREDITS :

   NOAA